Time;durP1;ratioP1;P1;durP2;ratioP2;P2;SDS_P1;SDS_P2;PMS_P1;PMS_P2;Temp;Humidity;BMP_temperature;BMP_pressure;BME280_temperature;BME280_humidity;BME280_pressure;Samples;Min_cycle;Max_cycle;Signal;HPM_P1;HPM_P2
2022/05/14 00:01:17;;;;;;;9.83;8.93;;;17.80;99.90;;;;;;5028456;28;20199;-54
2022/05/14 00:03:45;;;;;;;11.07;8.70;;;17.80;99.90;;;;;;5028493;28;20257;-55
2022/05/14 00:06:16;;;;;;;9.10;8.37;;;17.80;99.90;;;;;;5029950;28;20476;-55
2022/05/14 00:08:43;;;;;;;9.63;9.03;;;17.80;99.90;;;;;;5030148;28;20210;-55
2022/05/14 00:13:55;;;;;;;10.07;9.27;;;17.90;99.90;;;;;;5028751;28;20249;-55
2022/05/14 00:16:25;;;;;;;8.87;8.03;;;17.90;99.90;;;;;;5027669;28;20221;-55
2022/05/14 00:18:53;;;;;;;8.77;8.00;;;17.90;99.90;;;;;;5027032;28;20686;-55
2022/05/14 00:21:21;;;;;;;9.77;8.80;;;17.80;99.90;;;;;;5026737;28;20260;-55
2022/05/14 00:23:48;;;;;;;10.57;9.37;;;17.80;99.90;;;;;;5031080;28;20218;-55
2022/05/14 00:26:16;;;;;;;9.40;8.50;;;17.80;99.90;;;;;;5031162;28;20202;-55
2022/05/14 00:28:46;;;;;;;10.60;9.80;;;17.80;99.90;;;;;;5030750;28;20213;-55
2022/05/14 00:31:13;;;;;;;12.43;10.23;;;17.80;99.90;;;;;;5027010;28;20227;-55
2022/05/14 00:33:41;;;;;;;12.07;10.87;;;17.90;99.90;;;;;;5031165;28;20265;-55
2022/05/14 00:36:08;;;;;;;10.10;9.30;;;17.90;99.90;;;;;;5027457;28;20206;-55
2022/05/14 00:38:36;;;;;;;10.20;9.30;;;17.90;99.90;;;;;;5030339;28;20619;-55
2022/05/14 00:41:05;;;;;;;10.97;10.13;;;17.90;99.90;;;;;;5030394;28;20253;-55
2022/05/14 00:43:34;;;;;;;9.27;8.57;;;17.80;99.90;;;;;;5028959;28;20210;-55
2022/05/14 00:46:08;;;;;;;10.23;9.23;;;17.80;99.90;;;;;;5030803;28;20206;-55
2022/05/14 00:48:38;;;;;;;9.63;8.83;;;17.80;99.90;;;;;;5027854;28;20209;-55
2022/05/14 00:51:08;;;;;;;9.30;8.43;;;17.80;99.90;;;;;;5030139;28;20262;-55
2022/05/14 00:53:39;;;;;;;9.13;8.43;;;17.70;99.90;;;;;;5029970;28;20260;-55
2022/05/14 00:56:28;;;;;;;10.70;9.80;;;17.60;99.90;;;;;;5026990;28;20199;-55
2022/05/14 00:59:00;;;;;;;10.10;9.20;;;17.70;99.90;;;;;;5028945;28;20306;-55
2022/05/14 01:01:27;;;;;;;10.30;9.20;;;17.70;99.90;;;;;;5029742;28;20198;-55
2022/05/14 01:03:54;;;;;;;10.83;10.03;;;17.70;99.90;;;;;;5026406;28;20234;-55
2022/05/14 01:06:24;;;;;;;10.50;9.60;;;17.70;99.90;;;;;;5027484;28;20198;-55
2022/05/14 01:08:51;;;;;;;10.27;9.50;;;17.70;99.90;;;;;;5030867;28;20203;-55
2022/05/14 01:11:19;;;;;;;10.43;9.70;;;17.70;99.90;;;;;;5030639;28;20268;-54
2022/05/14 01:13:46;;;;;;;11.13;10.10;;;17.70;99.90;;;;;;5030754;28;20199;-54
2022/05/14 01:16:14;;;;;;;11.37;9.47;;;17.70;99.90;;;;;;5026323;28;20213;-55
2022/05/14 01:18:41;;;;;;;10.50;9.43;;;17.60;99.90;;;;;;5025020;28;20276;-55
2022/05/14 01:21:14;;;;;;;9.23;8.53;;;17.50;99.90;;;;;;5030349;28;20264;-55
2022/05/14 01:26:36;;;;;;;10.07;9.13;;;17.50;99.90;;;;;;5027684;28;20210;-55
2022/05/14 01:29:06;;;;;;;10.73;9.23;;;17.50;99.90;;;;;;5032512;28;20209;-54
2022/05/14 01:31:34;;;;;;;10.03;9.23;;;17.50;99.90;;;;;;5028157;28;20309;-54
2022/05/14 01:34:02;;;;;;;9.37;8.73;;;17.50;99.90;;;;;;5034138;28;20249;-55
2022/05/14 01:36:29;;;;;;;11.00;10.10;;;17.50;99.90;;;;;;5033809;28;20676;-55
2022/05/14 01:38:56;;;;;;;10.77;9.63;;;17.50;99.90;;;;;;5031332;28;20202;-55
2022/05/14 01:41:23;;;;;;;9.67;8.77;;;17.50;99.90;;;;;;5028962;28;20275;-55
2022/05/14 01:43:52;;;;;;;10.27;9.37;;;17.50;99.90;;;;;;5034400;28;20214;-55
2022/05/14 01:46:19;;;;;;;10.80;9.97;;;17.40;99.90;;;;;;5034570;28;20297;-55
2022/05/14 01:48:48;;;;;;;10.73;9.80;;;17.40;99.90;;;;;;5034306;28;20206;-55
2022/05/14 01:51:15;;;;;;;9.50;8.80;;;17.40;99.90;;;;;;5031224;28;20214;-55
2022/05/14 01:53:42;;;;;;;9.40;8.70;;;17.40;99.90;;;;;;5028833;28;20273;-54
2022/05/14 01:56:09;;;;;;;9.50;8.77;;;17.40;99.90;;;;;;5040463;23;20231;-47
2022/05/14 01:58:39;;;;;;;9.60;8.87;;;17.40;99.90;;;;;;5012167;28;20207;-47
2022/05/14 02:01:14;;;;;;;9.67;8.77;;;17.50;99.90;;;;;;5013689;28;20196;-47
2022/05/14 02:03:42;;;;;;;9.73;9.03;;;17.40;99.90;;;;;;5014357;28;20203;-48
2022/05/14 02:06:10;;;;;;;9.77;8.97;;;17.40;99.90;;;;;;5012003;28;20701;-47
2022/05/14 02:08:38;;;;;;;11.77;10.60;;;17.40;99.90;;;;;;5010900;28;20253;-47
2022/05/14 02:11:05;;;;;;;10.40;9.43;;;17.40;99.90;;;;;;5014130;28;20262;-47
2022/05/14 02:13:32;;;;;;;10.00;9.30;;;17.30;99.90;;;;;;5011772;28;20893;-47
2022/05/14 02:15:59;;;;;;;9.53;8.60;;;17.30;99.90;;;;;;5014171;28;20218;-47
2022/05/14 02:18:28;;;;;;;10.47;9.47;;;17.20;99.90;;;;;;5012245;28;20731;-47
2022/05/14 02:20:55;;;;;;;11.77;10.60;;;17.20;99.90;;;;;;5013374;28;20254;-47
2022/05/14 02:23:22;;;;;;;10.93;9.93;;;17.30;99.90;;;;;;5012141;28;20612;-47
2022/05/14 02:25:49;;;;;;;11.07;10.07;;;17.40;99.90;;;;;;5012669;28;20285;-50
2022/05/14 02:28:17;;;;;;;13.00;10.60;;;17.30;99.90;;;;;;5013198;28;20200;-47
2022/05/14 02:30:44;;;;;;;12.83;11.50;;;17.40;99.90;;;;;;5010762;28;20697;-47
2022/05/14 02:33:13;;;;;;;12.20;11.07;;;17.20;99.90;;;;;;5013286;28;20206;-47
2022/05/14 02:35:42;;;;;;;12.03;10.93;;;17.20;99.90;;;;;;5013348;28;20362;-47
2022/05/14 02:38:09;;;;;;;12.47;11.23;;;17.20;99.90;;;;;;5013639;28;20203;-47
2022/05/14 02:40:36;;;;;;;14.63;12.63;;;17.20;99.90;;;;;;5012253;28;20278;-46
2022/05/14 02:43:03;;;;;;;11.67;10.67;;;17.20;99.90;;;;;;5009583;28;20200;-47
2022/05/14 02:45:31;;;;;;;12.47;11.37;;;17.20;99.90;;;;;;5013877;28;20223;-46
2022/05/14 02:47:58;;;;;;;12.60;11.57;;;17.20;99.90;;;;;;5011996;28;20199;-47
2022/05/14 02:50:25;;;;;;;12.20;11.20;;;17.10;99.90;;;;;;5013665;28;20199;-46
2022/05/14 02:52:53;;;;;;;11.83;10.83;;;17.10;99.90;;;;;;5009814;28;20728;-47
2022/05/14 02:55:20;;;;;;;12.97;11.80;;;17.10;99.90;;;;;;5009864;28;20235;-47
2022/05/14 02:57:48;;;;;;;12.27;11.17;;;16.90;99.90;;;;;;5012658;28;20211;-47
2022/05/14 03:00:18;;;;;;;12.40;11.27;;;16.90;99.90;;;;;;5003062;28;20289;-48
2022/05/14 03:02:46;;;;;;;12.83;11.73;;;16.80;99.90;;;;;;5004983;28;20203;-47
2022/05/14 03:05:13;;;;;;;12.30;11.17;;;16.90;99.90;;;;;;5002126;28;20215;-47
2022/05/14 03:07:41;;;;;;;12.77;11.40;;;16.90;99.90;;;;;;4998896;28;20531;-47
2022/05/14 03:10:10;;;;;;;11.87;10.87;;;16.80;99.90;;;;;;5002572;28;20677;-47
2022/05/14 03:12:37;;;;;;;13.23;12.10;;;16.90;99.90;;;;;;5001779;28;20224;-46
2022/05/14 03:15:06;;;;;;;12.90;11.33;;;16.80;99.90;;;;;;5002617;28;20226;-47
2022/05/14 03:17:34;;;;;;;12.13;11.07;;;16.90;99.90;;;;;;4998256;28;20203;-47
2022/05/14 03:20:06;;;;;;;13.20;11.93;;;16.90;99.90;;;;;;4996838;28;20231;-47
2022/05/14 03:22:33;;;;;;;12.53;10.87;;;16.90;99.90;;;;;;4996421;28;20224;-47
2022/05/14 03:25:00;;;;;;;15.10;13.47;;;16.80;99.90;;;;;;5002234;28;20231;-47
2022/05/14 03:27:28;;;;;;;12.13;10.90;;;16.70;99.90;;;;;;5000060;28;20207;-47
2022/05/14 03:29:56;;;;;;;12.33;11.23;;;16.70;99.90;;;;;;5004342;28;20274;-47
2022/05/14 03:32:25;;;;;;;11.57;10.67;;;16.70;99.90;;;;;;5003000;28;20223;-47
2022/05/14 03:34:54;;;;;;;9.97;9.23;;;16.70;99.90;;;;;;4996382;28;20326;-46
2022/05/14 03:37:21;;;;;;;12.10;10.87;;;16.70;99.90;;;;;;4994822;28;20320;-47
2022/05/14 03:39:48;;;;;;;11.73;10.63;;;16.80;99.90;;;;;;5008657;28;20196;-46
2022/05/14 03:42:17;;;;;;;12.13;11.03;;;16.80;99.90;;;;;;4998936;28;20617;-47
2022/05/14 03:44:48;;;;;;;10.67;9.87;;;16.80;99.90;;;;;;4997999;28;20314;-47
2022/05/14 03:47:15;;;;;;;12.03;10.93;;;16.90;99.90;;;;;;5001145;28;20543;-47
2022/05/14 03:49:42;;;;;;;9.73;8.83;;;16.90;99.90;;;;;;4997549;28;20670;-46
2022/05/14 03:52:09;;;;;;;10.67;9.63;;;16.80;99.90;;;;;;4991713;28;20215;-47
2022/05/14 03:54:38;;;;;;;11.90;10.57;;;16.80;99.90;;;;;;4992380;28;20207;-47
2022/05/14 03:57:06;;;;;;;11.33;10.27;;;16.80;99.90;;;;;;4992421;28;20243;-47
2022/05/14 03:59:34;;;;;;;11.40;10.40;;;16.80;99.90;;;;;;5000370;28;20283;-47
2022/05/14 04:02:03;;;;;;;11.87;10.87;;;17.00;99.90;;;;;;5001550;28;20302;-46
2022/05/14 04:04:30;;;;;;;11.60;10.40;;;17.00;99.90;;;;;;4996434;28;20203;-47
2022/05/14 04:06:57;;;;;;;10.47;9.50;;;17.00;99.90;;;;;;5004054;28;20278;-47
2022/05/14 04:09:24;;;;;;;11.70;10.50;;;17.00;99.90;;;;;;5000132;28;20208;-47
2022/05/14 04:11:52;;;;;;;11.03;10.27;;;16.90;99.90;;;;;;4997811;28;20262;-46
2022/05/14 04:14:19;;;;;;;9.70;9.00;;;17.00;99.90;;;;;;4996082;28;20207;-47
2022/05/14 04:16:50;;;;;;;12.27;10.00;;;17.00;99.90;;;;;;4997482;28;21458;-47
2022/05/14 04:19:19;;;;;;;9.27;8.63;;;17.00;99.90;;;;;;5004447;28;20214;-47
2022/05/14 04:21:46;;;;;;;9.93;9.23;;;17.00;99.90;;;;;;4997520;28;20764;-47
2022/05/14 04:24:14;;;;;;;10.03;9.20;;;17.10;99.90;;;;;;5003343;28;20549;-47
2022/05/14 04:26:42;;;;;;;10.60;9.53;;;17.10;99.90;;;;;;4998840;28;20816;-47
2022/05/14 04:29:09;;;;;;;9.53;8.90;;;17.10;99.90;;;;;;5000264;28;20203;-47
2022/05/14 04:31:37;;;;;;;10.53;8.50;;;17.10;99.90;;;;;;4996268;28;20660;-47
2022/05/14 04:34:04;;;;;;;10.47;9.47;;;17.10;99.90;;;;;;5012184;28;20202;-47
2022/05/14 04:36:33;;;;;;;9.60;8.90;;;17.10;99.90;;;;;;5011783;28;20227;-46
2022/05/14 04:39:00;;;;;;;10.40;9.10;;;17.20;99.90;;;;;;5012303;28;20214;-47
2022/05/14 04:41:30;;;;;;;10.57;9.63;;;17.10;99.90;;;;;;5011743;28;20203;-47
2022/05/14 04:43:57;;;;;;;9.37;8.53;;;17.20;99.90;;;;;;5011874;28;20310;-47
2022/05/14 04:46:24;;;;;;;9.97;9.23;;;17.30;99.90;;;;;;5011521;28;20219;-47
2022/05/14 04:48:51;;;;;;;9.83;9.00;;;17.30;99.90;;;;;;5008357;28;20207;-47
2022/05/14 04:51:18;;;;;;;8.67;8.03;;;17.30;99.90;;;;;;5011716;28;20557;-47
2022/05/14 04:53:47;;;;;;;10.43;9.53;;;17.20;99.90;;;;;;5011772;28;20199;-47
2022/05/14 04:56:14;;;;;;;9.20;7.50;;;17.30;99.90;;;;;;5012772;28;20655;-46
2022/05/14 04:58:41;;;;;;;9.13;8.33;;;17.20;99.90;;;;;;5012887;28;20230;-47
2022/05/14 05:01:08;;;;;;;8.70;8.10;;;17.20;99.90;;;;;;5013801;28;20203;-48
2022/05/14 05:03:34;;;;;;;9.20;8.37;;;17.30;99.90;;;;;;5012047;28;20261;-47
2022/05/14 05:06:01;;;;;;;8.47;7.67;;;17.30;99.90;;;;;;5011420;28;20214;-47
2022/05/14 05:08:30;;;;;;;10.37;9.27;;;17.30;99.90;;;;;;5013632;28;20202;-47
2022/05/14 05:11:00;;;;;;;8.93;8.00;;;17.30;99.90;;;;;;5006616;28;20259;-47
2022/05/14 05:13:29;;;;;;;9.80;8.93;;;17.30;99.90;;;;;;5000502;28;20224;-46
2022/05/14 05:15:57;;;;;;;9.40;8.67;;;17.30;99.90;;;;;;5001721;28;20225;-46
2022/05/14 05:18:25;;;;;;;14.87;9.83;;;17.20;99.90;;;;;;5000484;28;20605;-46
2022/05/14 05:20:54;;;;;;;9.17;8.30;;;17.10;99.90;;;;;;5005181;28;20298;-46
2022/05/14 05:23:22;;;;;;;8.23;7.53;;;17.00;99.90;;;;;;5001521;28;20214;-47
2022/05/14 05:25:50;;;;;;;9.67;8.90;;;16.90;99.90;;;;;;4995643;28;20226;-47
2022/05/14 05:28:18;;;;;;;10.00;9.20;;;17.00;99.90;;;;;;5009084;28;20297;-47
2022/05/14 05:30:46;;;;;;;8.80;8.10;;;17.20;99.90;;;;;;5013599;28;20245;-47
2022/05/14 05:33:14;;;;;;;9.47;8.77;;;17.20;99.90;;;;;;5004842;28;20234;-47
2022/05/14 05:35:41;;;;;;;10.00;9.00;;;17.20;99.90;;;;;;5004774;28;20242;-46
2022/05/14 05:38:08;;;;;;;10.60;8.00;;;17.20;99.90;;;;;;5002344;28;20200;-47
2022/05/14 05:40:36;;;;;;;9.70;8.77;;;17.20;99.90;;;;;;4994796;28;20196;-47
2022/05/14 05:43:05;;;;;;;9.57;8.67;;;17.20;99.90;;;;;;5001180;28;20199;-47
2022/05/14 05:45:35;;;;;;;9.57;8.70;;;17.10;99.90;;;;;;4998899;28;20228;-46
2022/05/14 05:48:02;;;;;;;9.87;9.17;;;17.00;99.90;;;;;;5000617;28;20553;-46
2022/05/14 05:50:29;;;;;;;9.53;8.73;;;17.10;99.90;;;;;;5001534;28;20267;-47
2022/05/14 05:52:56;;;;;;;9.53;8.63;;;17.20;99.90;;;;;;4998967;28;20215;-47
2022/05/14 05:58:08;;;;;;;7.87;7.37;;;17.20;99.90;;;;;;5007327;28;20676;-46
2022/05/14 06:00:37;;;;;;;8.63;7.50;;;17.30;99.90;;;;;;4996842;28;20686;-47
2022/05/14 06:03:04;;;;;;;8.10;7.50;;;17.40;99.90;;;;;;4999673;28;20275;-47
2022/05/14 06:05:31;;;;;;;8.83;7.97;;;17.40;99.90;;;;;;4998083;28;20589;-47
2022/05/14 06:07:58;;;;;;;7.67;7.07;;;17.30;99.90;;;;;;4997848;28;20208;-46
2022/05/14 06:10:25;;;;;;;9.30;6.83;;;17.30;99.90;;;;;;5003938;28;20207;-47
2022/05/14 06:12:53;;;;;;;8.37;7.40;;;17.30;99.90;;;;;;4997371;28;20223;-46
2022/05/14 06:15:21;;;;;;;8.37;7.57;;;17.30;99.90;;;;;;4997712;28;20714;-46
2022/05/14 06:17:49;;;;;;;9.83;7.30;;;17.20;99.90;;;;;;4998929;28;20246;-46
2022/05/14 06:20:17;;;;;;;8.60;7.70;;;17.10;99.90;;;;;;5003990;28;20207;-47
2022/05/14 06:22:44;;;;;;;8.53;7.17;;;17.10;99.90;;;;;;5002182;28;20202;-47
2022/05/14 06:25:13;;;;;;;7.07;6.43;;;17.10;99.90;;;;;;5005155;28;20223;-47
2022/05/14 06:27:40;;;;;;;8.20;7.30;;;17.20;99.90;;;;;;4997484;28;20200;-47
2022/05/14 06:30:08;;;;;;;8.20;7.40;;;17.30;99.90;;;;;;5008694;28;20265;-47
2022/05/14 06:32:36;;;;;;;8.03;7.23;;;17.20;99.90;;;;;;5011944;28;20277;-47
2022/05/14 06:35:05;;;;;;;7.47;6.80;;;17.20;99.90;;;;;;5010893;28;20215;-47
2022/05/14 06:37:32;;;;;;;7.43;6.87;;;17.20;99.90;;;;;;4993610;28;20195;-47
2022/05/14 06:39:59;;;;;;;6.93;6.40;;;17.30;99.90;;;;;;4996037;28;20204;-47
2022/05/14 06:42:26;;;;;;;6.80;6.27;;;17.30;99.90;;;;;;4995875;28;20614;-47
2022/05/14 06:44:53;;;;;;;6.90;6.37;;;17.40;99.90;;;;;;5002884;28;20215;-47
2022/05/14 06:47:21;;;;;;;7.67;6.97;;;17.50;99.90;;;;;;5001209;28;20207;-47
2022/05/14 06:49:48;;;;;;;6.20;5.70;;;17.60;99.90;;;;;;5012814;28;20199;-46
2022/05/14 06:52:19;;;;;;;7.23;6.47;;;17.70;99.90;;;;;;5011315;28;20270;-47
2022/05/14 06:54:47;;;;;;;7.87;6.27;;;18.20;99.90;;;;;;5012874;28;20239;-47
2022/05/14 06:57:15;;;;;;;6.63;6.03;;;18.70;99.90;;;;;;5012015;28;20576;-46
2022/05/14 06:59:42;;;;;;;6.87;6.37;;;19.30;99.90;;;;;;5011891;28;20238;-46
2022/05/14 07:02:12;;;;;;;7.73;6.17;;;19.30;99.90;;;;;;5012904;28;20192;-47
2022/05/14 07:07:25;;;;;;;6.87;6.33;;;19.20;99.90;;;;;;5011154;28;20623;-47
2022/05/14 07:09:54;;;;;;;6.43;5.53;;;19.30;99.90;;;;;;5011568;28;20195;-46
2022/05/14 07:12:21;;;;;;;6.23;5.83;;;19.10;99.90;;;;;;5008475;28;20233;-47
2022/05/14 07:14:48;;;;;;;6.37;5.83;;;19.20;99.90;;;;;;5002005;28;20223;-47
2022/05/14 07:17:16;;;;;;;6.47;5.60;;;19.20;99.90;;;;;;5000501;28;20265;-47
2022/05/14 07:19:43;;;;;;;6.13;5.60;;;19.00;99.90;;;;;;5001374;28;20206;-48
2022/05/14 07:22:14;;;;;;;6.03;5.50;;;19.20;99.90;;;;;;4996153;28;20192;-48
2022/05/14 07:24:43;;;;;;;6.13;5.60;;;19.30;99.90;;;;;;4995907;28;20588;-47
2022/05/14 07:27:11;;;;;;;6.17;5.43;;;19.60;99.90;;;;;;5001508;28;20206;-46
2022/05/14 07:29:40;;;;;;;6.67;6.23;;;19.90;99.90;;;;;;4993489;28;20216;-47
2022/05/14 07:32:09;;;;;;;7.67;6.30;;;20.40;99.90;;;;;;4995650;28;20204;-48
2022/05/14 07:34:36;;;;;;;7.07;6.53;;;20.70;99.90;;;;;;5008920;28;20735;-48
2022/05/14 07:37:06;;;;;;;7.37;6.67;;;21.10;99.90;;;;;;5008755;28;20203;-47
2022/05/14 07:39:36;;;;;;;6.63;6.13;;;21.60;99.90;;;;;;5009489;28;20349;-47
2022/05/14 07:42:07;;;;;;;6.90;6.17;;;22.70;99.90;;;;;;5011598;28;20250;-47
2022/05/14 07:44:38;;;;;;;7.23;6.03;;;23.50;99.90;;;;;;5012508;28;20203;-47
2022/05/14 07:47:07;;;;;;;7.67;6.43;;;24.00;99.90;;;;;;5012083;28;20217;-47
2022/05/14 07:49:34;;;;;;;7.22;6.72;;;24.60;99.90;;;;;;5009366;28;20462;-47
2022/05/14 07:52:02;;;;;;;6.03;5.77;;;25.10;99.90;;;;;;5009329;28;20580;-46
2022/05/14 07:54:29;;;;;;;6.47;5.80;;;25.40;99.90;;;;;;5014714;28;20207;-47
2022/05/14 07:56:58;;;;;;;8.43;7.33;;;26.20;99.90;;;;;;5028674;28;20248;-48
2022/05/14 07:59:27;;;;;;;7.93;7.07;;;26.90;99.90;;;;;;5037611;23;20254;-55
2022/05/14 08:01:56;;;;;;;8.23;7.77;;;27.50;99.90;;;;;;5010165;28;20195;-54
2022/05/14 08:04:23;;;;;;;7.80;7.17;;;27.70;99.90;;;;;;5019244;28;20195;-55
2022/05/14 08:06:50;;;;;;;6.23;5.83;;;27.90;99.90;;;;;;5011886;28;20249;-54
2022/05/14 08:09:17;;;;;;;6.67;6.13;;;27.90;99.90;;;;;;5006142;28;20295;-55
2022/05/14 08:11:47;;;;;;;7.10;6.50;;;27.10;99.90;;;;;;5010658;28;20798;-55
2022/05/14 08:14:14;;;;;;;15.37;8.20;;;26.70;99.90;;;;;;5008650;28;20228;-55
2022/05/14 08:16:43;;;;;;;8.93;8.33;;;26.10;99.90;;;;;;5011614;28;20223;-55
2022/05/14 08:19:09;;;;;;;9.30;8.50;;;24.90;99.90;;;;;;5011947;28;20273;-55
2022/05/14 08:24:34;;;;;;;10.80;9.70;;;24.50;99.90;;;;;;4992092;28;20286;-54
2022/05/14 08:27:04;;;;;;;11.23;8.40;;;25.30;99.90;;;;;;4992055;28;20207;-54
2022/05/14 08:29:32;;;;;;;9.70;8.90;;;25.90;99.90;;;;;;4991989;28;20226;-55
2022/05/14 08:32:01;;;;;;;9.20;8.27;;;26.00;99.90;;;;;;5001905;28;20203;-55
2022/05/14 08:34:28;;;;;;;8.00;7.33;;;26.50;99.90;;;;;;5004499;28;20227;-55
2022/05/14 08:36:56;;;;;;;10.77;9.87;;;27.10;99.90;;;;;;5008791;28;20669;-56
2022/05/14 08:39:24;;;;;;;12.77;11.77;;;27.40;99.90;;;;;;5011359;28;20281;-56
2022/05/14 08:41:53;;;;;;;10.60;9.60;;;27.00;99.90;;;;;;5011108;28;20711;-56
2022/05/14 08:44:24;;;;;;;14.23;11.77;;;26.70;99.90;;;;;;5011554;28;20253;-55
2022/05/14 08:46:55;;;;;;;8.70;8.15;;;26.80;99.90;;;;;;5010059;28;20631;-55
2022/05/14 08:49:29;;;;;;;9.10;8.18;;;27.20;99.90;;;;;;5005705;28;20223;-56
2022/05/14 08:51:57;;;;;;;10.75;9.90;;;28.20;99.90;;;;;;5011076;28;20288;-55
2022/05/14 08:54:24;;;;;;;9.68;8.73;;;28.00;99.90;;;;;;4993971;28;20228;-56
2022/05/14 08:57:00;;;;;;;10.23;9.32;;;28.40;99.90;;;;;;5001713;28;20233;-56
2022/05/14 08:59:52;;;;;;;9.75;8.48;;;28.90;99.90;;;;;;5008664;28;20778;-56
2022/05/14 09:02:21;;;;;;;8.20;7.70;;;29.00;99.90;;;;;;4991827;28;20208;-56
2022/05/14 09:04:50;;;;;;;8.07;7.57;;;29.00;99.90;;;;;;5002441;28;20207;-56
2022/05/14 09:07:18;;;;;;;8.73;8.10;;;29.80;99.90;;;;;;5005338;28;20205;-56
2022/05/14 09:09:50;;;;;;;9.50;8.70;;;30.50;99.90;;;;;;5010937;28;20306;-56
2022/05/14 09:12:20;;;;;;;8.60;8.07;;;29.50;99.90;;;;;;5005065;28;20266;-55
2022/05/14 09:14:52;;;;;;;9.60;8.75;;;28.90;99.90;;;;;;5009091;28;20281;-56
2022/05/14 09:17:21;;;;;;;8.85;8.13;;;29.20;99.90;;;;;;5011310;28;20751;-56
2022/05/14 09:19:52;;;;;;;9.60;8.75;;;28.90;99.90;;;;;;5010044;28;20330;-56
2022/05/14 09:22:29;;;;;;;8.82;8.00;;;29.40;99.90;;;;;;5011098;28;20277;-55
2022/05/14 09:25:05;;;;;;;8.77;7.97;;;29.70;99.90;;;;;;5006992;28;20199;-56
2022/05/14 09:27:44;;;;;;;9.02;8.27;;;30.20;99.90;;;;;;5006701;28;20199;-56
2022/05/14 09:30:15;;;;;;;10.77;9.98;;;29.80;99.90;;;;;;4999054;28;20270;-55
2022/05/14 09:32:44;;;;;;;10.80;9.75;;;28.70;99.90;;;;;;5003265;28;20200;-56
2022/05/14 09:35:16;;;;;;;9.68;8.73;;;28.20;99.90;;;;;;5001121;28;20261;-55
2022/05/14 09:37:44;;;;;;;11.38;10.23;;;28.00;99.90;;;;;;5004834;28;20552;-55
2022/05/14 09:40:19;;;;;;;11.88;10.77;;;27.80;99.90;;;;;;5010898;28;20254;-55
2022/05/14 09:42:48;;;;;;;9.95;9.13;;;27.10;99.90;;;;;;5012417;28;20207;-55
2022/05/14 09:45:23;;;;;;;10.07;9.23;;;27.70;99.90;;;;;;5010739;28;20211;-55
2022/05/14 09:47:50;;;;;;;10.25;9.45;;;28.40;99.90;;;;;;5011147;28;20229;-56
2022/05/14 09:50:23;;;;;;;9.75;8.93;;;28.80;99.90;;;;;;5013421;28;20203;-55
2022/05/14 09:52:59;;;;;;;9.70;9.10;;;29.10;99.90;;;;;;5014226;28;20257;-55
2022/05/14 09:55:47;;;;;;;10.38;9.45;;;28.80;99.90;;;;;;5014385;28;20207;-55
2022/05/14 09:58:22;;;;;;;10.82;9.95;;;29.20;99.90;;;;;;5011528;28;20289;-55
2022/05/14 10:00:58;;;;;;;11.13;10.20;;;29.10;99.90;;;;;;5014072;28;20578;-55
2022/05/14 10:03:41;;;;;;;11.30;10.07;;;28.70;99.90;;;;;;5013921;28;20732;-55
2022/05/14 10:06:20;;;;;;;9.65;9.05;;;28.50;99.90;;;;;;4994513;28;20214;-55
2022/05/14 10:09:05;;;;;;;12.47;9.17;;;28.40;99.90;;;;;;4994426;28;20228;-56
2022/05/14 10:11:34;;;;;;;10.45;9.75;;;28.60;99.90;;;;;;4995429;28;20262;-56
2022/05/14 10:14:11;;;;;;;9.82;9.05;;;28.70;99.90;;;;;;4994426;28;20597;-56
2022/05/14 10:16:43;;;;;;;8.60;7.78;;;28.70;99.90;;;;;;5009346;28;20211;-56
2022/05/14 10:19:28;;;;;;;9.02;8.23;;;29.20;99.90;;;;;;5005527;28;20334;-56
2022/05/14 10:22:06;;;;;;;9.30;8.45;;;30.10;99.90;;;;;;5010489;28;20257;-56
2022/05/14 10:27:47;;;;;;;9.38;8.63;;;29.60;99.90;;;;;;4994912;28;20202;-55
2022/05/14 10:30:20;;;;;;;7.97;7.38;;;28.30;99.90;;;;;;5008760;28;20216;-56
2022/05/14 10:32:50;;;;;;;10.18;9.25;;;29.00;99.90;;;;;;5007876;28;20290;-56
2022/05/14 10:35:23;;;;;;;8.68;8.05;;;28.90;99.90;;;;;;5015236;28;20562;-56
2022/05/14 10:37:54;;;;;;;9.13;8.23;;;28.70;99.90;;;;;;5010836;28;20223;-56
2022/05/14 10:40:27;;;;;;;10.40;9.55;;;28.80;99.90;;;;;;5006487;28;20195;-55
2022/05/14 10:43:13;;;;;;;8.60;7.88;;;28.10;99.90;;;;;;5011507;28;20245;-55
2022/05/14 10:45:44;;;;;;;8.13;7.35;;;27.80;99.90;;;;;;5012498;28;20203;-55
2022/05/14 10:48:22;;;;;;;7.35;6.85;;;27.90;99.90;;;;;;5004613;28;20641;-55
2022/05/14 10:50:49;;;;;;;7.70;7.10;;;27.50;99.90;;;;;;5004042;28;20816;-55
2022/05/14 10:53:18;;;;;;;6.82;6.43;;;27.30;99.90;;;;;;4997527;28;20306;-55
2022/05/14 10:55:51;;;;;;;6.73;6.30;;;27.50;99.90;;;;;;4998332;28;20291;-55
2022/05/14 10:58:35;;;;;;;7.53;6.63;;;27.00;99.90;;;;;;4992673;28;20231;-55
2022/05/14 11:01:03;;;;;;;6.23;5.63;;;26.50;99.90;;;;;;4992798;28;20200;-55
2022/05/14 11:03:36;;;;;;;6.70;6.17;;;26.00;99.90;;;;;;4993080;28;20206;-55
2022/05/14 11:06:13;;;;;;;4.90;4.60;;;25.80;99.90;;;;;;5005905;28;20253;-55
2022/05/14 11:08:43;;;;;;;5.33;5.00;;;25.80;99.90;;;;;;5012204;28;20219;-55
2022/05/14 11:11:20;;;;;;;6.93;6.40;;;25.60;99.90;;;;;;5010348;28;20207;-55
2022/05/14 11:14:01;;;;;;;5.83;5.30;;;25.50;99.90;;;;;;5012419;28;20898;-55
2022/05/14 11:16:49;;;;;;;5.07;4.77;;;25.40;99.90;;;;;;5010717;28;20203;-55
2022/05/14 11:19:27;;;;;;;7.50;6.27;;;25.40;99.90;;;;;;5004425;28;20724;-55
2022/05/14 11:21:55;;;;;;;6.20;5.67;;;25.10;99.90;;;;;;5012564;28;20199;-55
2022/05/14 11:24:33;;;;;;;6.90;5.60;;;25.10;99.90;;;;;;5012839;28;20223;-55
2022/05/14 11:27:01;;;;;;;5.93;4.80;;;25.40;99.90;;;;;;5011975;28;20253;-55
2022/05/14 11:29:30;;;;;;;5.47;4.77;;;25.50;99.90;;;;;;5012242;28;20581;-54
2022/05/14 11:32:05;;;;;;;10.50;4.40;;;25.20;99.90;;;;;;5010833;28;20207;-55
2022/05/14 11:34:32;;;;;;;5.70;4.90;;;24.50;99.90;;;;;;5012466;28;20219;-54
2022/05/14 11:37:02;;;;;;;5.20;4.80;;;24.60;99.90;;;;;;5012463;28;20269;-54
2022/05/14 11:39:34;;;;;;;5.63;5.23;;;24.60;99.90;;;;;;5012412;28;20231;-55
2022/05/14 11:42:29;;;;;;;4.70;4.33;;;24.80;99.90;;;;;;5012039;28;20297;-55
2022/05/14 11:45:01;;;;;;;3.97;3.77;;;25.00;99.90;;;;;;4975883;28;20218;-55
2022/05/14 11:47:48;;;;;;;5.00;4.70;;;25.10;99.90;;;;;;4998759;28;20203;-55
2022/05/14 11:50:19;;;;;;;5.67;5.20;;;25.30;99.90;;;;;;5008625;28;20207;-55
2022/05/14 11:52:59;;;;;;;5.67;5.00;;;25.30;99.90;;;;;;4992051;28;20203;-55
2022/05/14 11:55:35;;;;;;;5.03;4.73;;;25.50;99.90;;;;;;4992344;28;20282;-55
2022/05/14 11:58:08;;;;;;;6.23;3.97;;;25.70;99.90;;;;;;4994667;28;20227;-55
2022/05/14 12:00:36;;;;;;;9.27;8.47;;;25.90;99.90;;;;;;5010178;28;20208;-55
2022/05/14 12:03:13;;;;;;;5.33;5.03;;;25.80;99.90;;;;;;5000937;28;20265;-55
2022/05/14 12:05:45;;;;;;;6.50;6.03;;;25.80;99.90;;;;;;5000333;28;20194;-55
2022/05/14 12:08:39;;;;;;;5.23;4.73;;;25.50;99.90;;;;;;4999271;28;20215;-55
2022/05/14 12:11:25;;;;;;;5.27;4.77;;;25.30;99.90;;;;;;5007201;28;20627;-55
2022/05/14 12:14:00;;;;;;;6.07;5.57;;;25.10;99.90;;;;;;4991606;28;20208;-55
2022/05/14 12:16:30;;;;;;;5.60;4.80;;;25.00;99.90;;;;;;4996537;28;20206;-55
2022/05/14 12:18:58;;;;;;;6.20;4.37;;;25.10;99.90;;;;;;4991597;28;20290;-55
2022/05/14 12:21:25;;;;;;;7.17;4.53;;;25.20;99.90;;;;;;5004987;28;20203;-55
2022/05/14 12:23:53;;;;;;;4.80;4.43;;;25.30;99.90;;;;;;5008051;28;20194;-54
2022/05/14 12:26:24;;;;;;;4.03;3.73;;;25.30;99.90;;;;;;4991353;28;20231;-54
2022/05/14 12:28:52;;;;;;;7.93;4.73;;;25.10;99.90;;;;;;4991977;28;20303;-55
2022/05/14 12:34:12;;;;;;;3.97;3.67;;;24.60;99.90;;;;;;5001229;28;20226;-55
2022/05/14 12:36:43;;;;;;;5.23;4.07;;;24.90;99.90;;;;;;4991227;28;20204;-55
2022/05/14 12:39:15;;;;;;;3.73;3.53;;;25.00;99.90;;;;;;5019780;28;20225;-55
2022/05/14 12:41:48;;;;;;;6.60;4.40;;;25.00;99.90;;;;;;5031265;28;20268;-55
2022/05/14 12:44:22;;;;;;;4.47;4.07;;;24.90;99.90;;;;;;5017070;28;20918;-55
2022/05/14 12:46:55;;;;;;;4.60;4.30;;;24.80;99.90;;;;;;4991424;28;20200;-55
2022/05/14 12:49:26;;;;;;;4.93;4.53;;;25.00;99.90;;;;;;4999279;28;20289;-55
2022/05/14 12:51:56;;;;;;;4.73;4.33;;;25.10;99.90;;;;;;4995584;28;20199;-55
2022/05/14 12:54:28;;;;;;;4.73;4.40;;;25.00;99.90;;;;;;4997552;28;20258;-55
2022/05/14 12:56:59;;;;;;;3.73;3.53;;;25.00;99.90;;;;;;4991425;28;20273;-55
2022/05/14 12:59:27;;;;;;;5.23;4.07;;;24.90;99.90;;;;;;5007668;28;20234;-55
2022/05/14 13:02:02;;;;;;;4.93;4.50;;;24.90;99.90;;;;;;5009084;28;20202;-55
2022/05/14 13:04:35;;;;;;;5.80;4.67;;;25.00;99.90;;;;;;5011453;28;20195;-55
2022/05/14 13:07:03;;;;;;;5.07;4.10;;;24.90;99.90;;;;;;5002854;28;20204;-55
2022/05/14 13:09:31;;;;;;;4.63;4.17;;;24.80;99.90;;;;;;4991054;28;20266;-55
2022/05/14 13:12:00;;;;;;;5.60;4.43;;;24.60;99.90;;;;;;5000662;28;20222;-55
2022/05/14 13:14:30;;;;;;;4.33;3.93;;;24.60;99.90;;;;;;5009602;28;20215;-55